Terminal Aerodrome Forecast
Issued by NWS

Home | Current Version | Previous Version | Text Only | Print | Product List | Glossary Off
Versions: 1 2 3 4 5 6 7 8 9 10 11 12 13

000
FTUS43 KICT 151720
TAFRSL
TAF
KRSL 151720Z 1518/1618 07006KT 4SM -FZRA SCT004 OVC008
      TEMPO 1518/1522 2SM FZRA BR OVC004
     FM152200 06006KT 3SM -FZRA BR OVC006
     FM160400 08006KT 2SM -FZRA BR OVC006=

USA.gov is the U.S. government's official web portal to all federal, state and local government web resources and services.